createdAt,value
2022-09-11T00:01:34.304Z,101809.91
2022-09-11T00:04:03.273Z,101819.53
2022-09-11T00:06:31.020Z,101819.50
2022-09-11T00:09:04.514Z,101827.31
2022-09-11T00:11:40.405Z,101826.41
2022-09-11T00:14:08.092Z,101819.41
2022-09-11T00:16:39.103Z,101819.41
2022-09-11T00:19:28.607Z,101819.38
2022-09-11T00:21:57.224Z,101815.03
2022-09-11T00:24:24.812Z,101824.69
2022-09-11T00:26:52.278Z,101821.19
2022-09-11T00:29:19.708Z,101833.44
2022-09-11T00:31:49.140Z,101817.72
2022-09-11T00:34:17.269Z,101826.50
2022-09-11T00:36:44.733Z,101832.63
2022-09-11T00:39:14.171Z,101828.28
2022-09-11T00:41:44.989Z,101835.25
2022-09-11T00:44:35.522Z,101833.53
2022-09-11T00:47:09.060Z,101832.66
2022-09-11T00:49:51.125Z,101826.56
2022-09-11T00:52:27.208Z,101835.28
2022-09-11T00:55:01.000Z,101843.16
2022-09-11T00:57:33.561Z,101837.03
2022-09-11T01:00:03.242Z,101837.03
2022-09-11T01:02:34.806Z,101835.28
2022-09-11T01:05:03.337Z,101836.16
2022-09-11T01:07:32.099Z,101840.53
2022-09-11T01:10:00.219Z,101844.88
2022-09-11T01:12:43.580Z,101841.41
2022-09-11T01:15:23.232Z,101839.66
2022-09-11T01:18:00.355Z,101842.28
2022-09-11T01:20:49.309Z,101842.28
2022-09-11T01:23:34.950Z,101838.84
2022-09-11T01:26:32.691Z,101842.34
2022-09-11T01:29:30.169Z,101843.22
2022-09-11T01:32:18.860Z,101847.63
2022-09-11T01:35:04.340Z,101845.00
2022-09-11T01:38:12.113Z,101840.66
2022-09-11T01:40:49.253Z,101841.56
2022-09-11T01:43:23.019Z,101845.91
2022-09-11T01:45:53.146Z,101832.84
2022-09-11T01:48:26.373Z,101844.19
2022-09-11T01:50:57.039Z,101843.31
2022-09-11T01:53:29.045Z,101840.72
2022-09-11T01:56:06.677Z,101840.72
2022-09-11T01:58:36.782Z,101851.19
2022-09-11T02:01:37.928Z,101851.19
2022-09-11T02:04:18.058Z,101852.06
2022-09-11T02:06:53.928Z,101842.47
2022-09-11T02:09:24.965Z,101844.22
2022-09-11T02:11:55.797Z,101836.41
2022-09-11T02:14:32.208Z,101845.09
2022-09-11T02:17:05.315Z,101854.66
2022-09-11T02:19:32.737Z,101856.44
2022-09-11T02:22:00.603Z,101864.28
2022-09-11T02:24:29.475Z,101859.94
2022-09-11T02:27:02.680Z,101861.69
2022-09-11T02:29:30.314Z,101868.66
2022-09-11T02:31:57.898Z,101860.81
2022-09-11T02:34:29.594Z,101867.78
2022-09-11T02:37:21.269Z,101872.16
2022-09-11T02:40:13.622Z,101863.44
2022-09-11T02:43:05.941Z,101866.03
2022-09-11T02:45:57.981Z,101866.91
2022-09-11T02:49:17.119Z,101867.81
2022-09-11T02:52:05.944Z,101861.69
2022-09-11T02:54:43.805Z,101873.91
2022-09-11T02:57:34.772Z,101869.56
2022-09-11T03:00:05.634Z,101872.16
2022-09-11T03:02:36.369Z,101866.06
2022-09-11T03:05:05.054Z,101872.16
2022-09-11T03:07:33.051Z,101859.97
2022-09-11T03:10:00.545Z,101877.38
2022-09-11T03:12:28.580Z,101877.38
2022-09-11T03:14:57.091Z,101876.50
2022-09-11T03:17:25.551Z,101884.34
2022-09-11T03:19:52.970Z,101877.38
2022-09-11T03:22:20.719Z,101861.72
2022-09-11T03:24:48.169Z,101877.38
2022-09-11T03:27:15.642Z,101870.41
2022-09-11T03:29:43.900Z,101872.16
2022-09-11T03:32:11.818Z,101864.31
2022-09-11T03:34:39.290Z,101879.13
2022-09-11T03:37:06.800Z,101880.91
2022-09-11T03:39:34.460Z,101869.56
2022-09-11T03:42:02.091Z,101877.41
2022-09-11T03:44:29.565Z,101881.75
2022-09-11T03:46:57.240Z,101876.53
2022-09-11T03:49:24.752Z,101881.75
2022-09-11T03:51:52.685Z,101876.53
2022-09-11T03:54:20.913Z,101881.75
2022-09-11T03:56:48.321Z,101877.41
2022-09-11T03:59:15.798Z,101879.16
2022-09-11T04:01:43.263Z,101884.41
2022-09-11T04:04:10.779Z,101876.56
2022-09-11T04:06:38.212Z,101884.38
2022-09-11T04:09:05.674Z,101879.16
2022-09-11T04:11:37.404Z,101878.31
2022-09-11T04:14:05.577Z,101884.38
2022-09-11T04:16:33.474Z,101885.25
2022-09-11T04:19:04.493Z,101879.16
2022-09-11T04:21:32.338Z,101893.97
2022-09-11T04:24:00.501Z,101887.84
2022-09-11T04:26:33.167Z,101893.09
2022-09-11T04:29:01.255Z,101904.38
2022-09-11T04:31:28.983Z,101906.13
2022-09-11T04:33:58.186Z,101897.41
2022-09-11T04:36:27.094Z,101888.72
2022-09-11T04:38:57.799Z,101893.06
2022-09-11T04:41:26.604Z,101892.22
2022-09-11T04:44:03.901Z,101900.94
2022-09-11T04:46:32.452Z,101900.06
2022-09-11T04:49:00.261Z,101900.91
2022-09-11T04:51:33.952Z,101901.78
2022-09-11T04:54:02.220Z,101906.97
2022-09-11T04:56:32.397Z,101913.94
2022-09-11T04:59:02.489Z,101913.94
2022-09-11T05:01:32.106Z,101915.69
2022-09-11T05:04:00.568Z,101913.06
2022-09-11T05:06:30.204Z,101905.22
2022-09-11T05:09:01.610Z,101911.31
2022-09-11T05:11:30.102Z,101915.66
2022-09-11T05:13:59.942Z,101913.06
2022-09-11T05:16:29.301Z,101913.94
2022-09-11T05:18:59.237Z,101919.16
2022-09-11T05:21:27.715Z,101922.66
2022-09-11T05:23:57.874Z,101921.78
2022-09-11T05:26:36.857Z,101936.56
2022-09-11T05:29:12.918Z,101938.31
2022-09-11T05:31:40.863Z,101933.09
2022-09-11T05:34:09.698Z,101944.44
2022-09-11T05:36:37.368Z,101952.28
2022-09-11T05:39:05.694Z,101952.28
2022-09-11T05:41:33.242Z,101962.75
2022-09-11T05:44:00.711Z,101962.75
2022-09-11T05:46:28.191Z,101963.59
2022-09-11T05:48:55.667Z,101964.50
2022-09-11T05:51:23.824Z,101960.13
2022-09-11T05:53:56.785Z,101967.97
2022-09-11T05:56:26.098Z,101974.06
2022-09-11T05:58:54.016Z,101981.91
2022-09-11T06:01:24.189Z,101981.03
2022-09-11T06:03:51.889Z,101981.06
2022-09-11T06:06:22.156Z,101981.91
2022-09-11T06:08:51.778Z,101980.19
2022-09-11T06:11:21.182Z,101974.94
2022-09-11T06:13:49.504Z,101986.28
2022-09-11T06:16:22.299Z,101981.94
2022-09-11T06:18:51.648Z,101980.19
2022-09-11T06:21:21.069Z,101980.22
2022-09-11T06:23:53.246Z,101981.94
2022-09-11T06:26:23.565Z,101978.44
2022-09-11T06:28:51.945Z,101973.16
2022-09-11T06:31:22.137Z,101985.34
2022-09-11T06:33:51.019Z,101990.53
2022-09-11T06:36:20.599Z,101994.00
2022-09-11T06:38:53.235Z,101989.59
2022-09-11T06:41:20.970Z,101992.16
2022-09-11T06:43:49.173Z,101994.72
2022-09-11T06:46:21.936Z,101995.47
2022-09-11T06:48:51.185Z,101997.19
2022-09-11T06:51:20.878Z,101995.34
2022-09-11T06:53:48.696Z,101992.66
2022-09-11T06:56:18.541Z,101989.94
2022-09-11T06:58:46.769Z,101982.84
2022-09-11T07:01:16.721Z,101994.94
2022-09-11T07:03:46.068Z,101994.84
2022-09-11T07:06:18.572Z,101985.91
2022-09-11T07:08:52.133Z,101993.72
2022-09-11T07:11:20.530Z,101997.09
2022-09-11T07:13:48.103Z,101995.25
2022-09-11T07:16:16.435Z,102001.28
2022-09-11T07:18:46.420Z,101999.41
2022-09-11T07:21:15.171Z,102001.13
2022-09-11T07:23:44.113Z,101999.22
2022-09-11T07:26:13.781Z,101993.81
2022-09-11T07:28:41.614Z,102000.88
2022-09-11T07:31:15.330Z,101999.06
2022-09-11T07:33:48.684Z,101998.84
2022-09-11T07:36:18.686Z,101997.13
2022-09-11T07:38:47.878Z,101991.53
2022-09-11T07:41:17.181Z,102005.22
2022-09-11T07:43:46.319Z,101998.97
2022-09-11T07:46:15.190Z,101992.69
2022-09-11T07:48:43.450Z,101992.53
2022-09-11T07:51:13.956Z,101988.75
2022-09-11T07:53:44.163Z,101981.53
2022-09-11T07:56:14.781Z,101973.41
2022-09-11T07:58:44.079Z,101991.28
2022-09-11T08:01:14.313Z,101988.31
2022-09-11T08:03:43.067Z,101979.47
2022-09-11T08:06:17.834Z,101987.91
2022-09-11T08:08:48.956Z,101987.78
2022-09-11T08:11:19.082Z,101994.09
2022-09-11T08:13:51.954Z,101999.97
2022-09-11T08:16:24.552Z,101990.31
2022-09-11T08:18:52.316Z,101984.03
2022-09-11T08:21:20.332Z,101991.16
2022-09-11T08:23:48.980Z,101983.25
2022-09-11T08:26:22.675Z,101996.28
2022-09-11T08:28:52.111Z,101992.09
2022-09-11T08:31:22.111Z,101990.44
2022-09-11T08:33:50.202Z,101990.00
2022-09-11T08:36:17.781Z,101991.56
2022-09-11T08:38:46.486Z,101993.59
2022-09-11T08:41:21.744Z,101993.66
2022-09-11T08:43:56.600Z,101989.03
2022-09-11T08:46:27.888Z,101986.38
2022-09-11T08:49:03.305Z,101987.91
2022-09-11T08:51:32.285Z,101982.19
2022-09-11T08:54:01.940Z,101992.94
2022-09-11T08:56:33.480Z,101983.84
2022-09-11T08:59:06.757Z,101989.47
2022-09-11T09:01:47.110Z,101975.09
2022-09-11T09:04:33.043Z,101986.91
2022-09-11T09:07:22.814Z,101987.03
2022-09-11T09:10:02.151Z,101985.25
2022-09-11T09:12:45.384Z,101985.25
2022-09-11T09:15:36.995Z,101988.75
2022-09-11T09:18:11.702Z,101985.88
2022-09-11T09:20:47.550Z,101985.53
2022-09-11T09:23:21.981Z,101987.72
2022-09-11T09:25:52.698Z,101981.97
2022-09-11T09:28:21.912Z,101988.53
2022-09-11T09:30:57.264Z,101992.41
2022-09-11T09:33:39.907Z,101980.81
2022-09-11T09:36:18.942Z,101986.13
2022-09-11T09:38:47.034Z,101982.63
2022-09-11T09:41:45.509Z,101982.00
2022-09-11T09:44:29.933Z,101989.78
2022-09-11T09:46:57.492Z,101984.31
2022-09-11T09:49:34.957Z,101985.16
2022-09-11T09:52:16.666Z,101973.06
2022-09-11T09:54:44.976Z,101984.63
2022-09-11T09:57:13.699Z,101984.31
2022-09-11T09:59:46.830Z,101989.28
2022-09-11T10:02:14.394Z,101989.00
2022-09-11T10:04:41.893Z,101989.78
2022-09-11T10:07:12.330Z,101992.53
2022-09-11T10:09:47.532Z,101994.94
2022-09-11T10:12:22.810Z,101991.78
2022-09-11T10:15:03.098Z,101986.25
2022-09-11T10:17:31.196Z,101981.16
2022-09-11T10:20:18.512Z,101986.03
2022-09-11T10:22:49.601Z,101976.63
2022-09-11T10:25:26.505Z,101981.63
2022-09-11T10:28:14.284Z,101989.03
2022-09-11T10:30:49.470Z,101988.03
2022-09-11T10:33:41.566Z,101956.44
2022-09-11T10:36:10.951Z,101987.13
2022-09-11T10:38:48.180Z,101985.44
2022-09-11T10:41:15.907Z,101983.31
2022-09-11T10:44:05.463Z,101988.63
2022-09-11T10:46:43.394Z,101982.63
2022-09-11T10:49:21.921Z,101976.22
2022-09-11T10:52:15.802Z,101980.31
2022-09-11T10:55:08.593Z,101980.53
2022-09-11T10:57:49.890Z,101985.78
2022-09-11T11:00:20.357Z,101984.13
2022-09-11T11:02:51.401Z,101980.41
2022-09-11T11:05:54.029Z,101975.16
2022-09-11T11:08:36.523Z,101985.00
2022-09-11T11:11:22.266Z,101990.25
2022-09-11T11:13:55.620Z,101979.41
2022-09-11T11:16:45.408Z,101981.88
2022-09-11T11:19:31.355Z,101980.56
2022-09-11T11:21:58.794Z,101983.22
2022-09-11T11:24:38.248Z,101985.38
2022-09-11T11:27:08.688Z,101981.22
2022-09-11T11:29:50.532Z,101978.44
2022-09-11T11:32:27.975Z,101976.41
2022-09-11T11:35:18.179Z,101977.53
2022-09-11T11:37:49.126Z,101968.44
2022-09-11T11:40:24.751Z,101972.94
2022-09-11T11:43:17.471Z,101974.81
2022-09-11T11:45:50.767Z,101967.00
2022-09-11T11:48:29.323Z,101957.31
2022-09-11T11:51:06.873Z,101957.44
2022-09-11T11:53:49.339Z,101950.56
2022-09-11T11:56:42.826Z,101951.66
2022-09-11T11:59:24.469Z,101951.81
2022-09-11T12:01:59.837Z,101951.25
2022-09-11T12:04:36.436Z,101951.75
2022-09-11T12:07:05.721Z,101944.78
2022-09-11T12:09:34.116Z,101936.09
2022-09-11T12:12:07.479Z,101948.63
2022-09-11T12:14:35.147Z,101946.50
2022-09-11T12:17:28.480Z,101945.53
2022-09-11T12:20:11.155Z,101948.81
2022-09-11T12:22:38.968Z,101949.94
2022-09-11T12:25:21.776Z,101946.72
2022-09-11T12:27:49.746Z,101938.09
2022-09-11T12:30:17.415Z,101940.16
2022-09-11T12:32:53.697Z,101944.34
2022-09-11T12:35:32.864Z,101941.78
2022-09-11T12:38:13.609Z,101940.16
2022-09-11T12:40:58.502Z,101940.06
2022-09-11T12:43:31.883Z,101928.72
2022-09-11T12:45:59.898Z,101931.09
2022-09-11T12:48:56.179Z,101926.84
2022-09-11T12:51:42.895Z,101922.78
2022-09-11T12:54:22.683Z,101925.50
2022-09-11T12:57:02.269Z,101912.69
2022-09-11T12:59:39.585Z,101924.03
2022-09-11T13:02:26.877Z,101917.94
2022-09-11T13:04:56.383Z,101913.94
2022-09-11T13:07:46.311Z,101905.47
2022-09-11T13:10:33.414Z,101905.28
2022-09-11T13:13:03.292Z,101909.84
2022-09-11T13:15:42.467Z,101912.59
2022-09-11T13:18:32.154Z,101907.13
2022-09-11T13:21:14.721Z,101886.56
2022-09-11T13:23:43.169Z,101900.94
2022-09-11T13:26:18.995Z,101897.31
2022-09-11T13:28:49.303Z,101896.88
2022-09-11T13:31:26.897Z,101895.28
2022-09-11T13:33:55.218Z,101900.72
2022-09-11T13:36:25.621Z,101894.91
2022-09-11T13:39:00.241Z,101885.13
2022-09-11T13:41:32.196Z,101892.28
2022-09-11T13:44:02.250Z,101881.16
2022-09-11T13:46:32.290Z,101881.94
2022-09-11T13:49:13.444Z,101887.59
2022-09-11T13:51:45.780Z,101894.31
2022-09-11T13:54:24.476Z,101883.03
2022-09-11T13:56:58.037Z,101879.66
2022-09-11T13:59:26.361Z,101886.91
2022-09-11T14:02:00.834Z,101866.84
2022-09-11T14:04:31.093Z,101879.31
2022-09-11T14:06:58.761Z,101878.94
2022-09-11T14:09:26.274Z,101868.06
2022-09-11T14:11:53.849Z,101872.47
2022-09-11T14:14:29.097Z,101870.41
2022-09-11T14:17:01.328Z,101866.56
2022-09-11T14:19:32.788Z,101861.00
2022-09-11T14:22:02.437Z,101868.22
2022-09-11T14:24:32.689Z,101860.94
2022-09-11T14:27:01.987Z,101869.81
2022-09-11T14:29:37.446Z,101872.34
2022-09-11T14:32:37.025Z,101869.81
2022-09-11T14:35:07.385Z,101866.72
2022-09-11T14:37:40.803Z,101865.34
2022-09-11T14:40:16.377Z,101866.38
2022-09-11T14:42:44.350Z,101862.22
2022-09-11T14:45:19.272Z,101870.38
2022-09-11T14:47:46.748Z,101865.72
2022-09-11T14:50:14.417Z,101865.28
2022-09-11T14:52:43.276Z,101866.47
2022-09-11T14:55:19.186Z,101867.16
2022-09-11T14:57:47.492Z,101869.84
2022-09-11T15:00:16.352Z,101858.19
2022-09-11T15:02:43.944Z,101862.22
2022-09-11T15:05:16.104Z,101859.66
2022-09-11T15:07:45.434Z,101860.00
2022-09-11T15:10:14.085Z,101838.94
2022-09-11T15:12:42.562Z,101850.94
2022-09-11T15:15:10.620Z,101852.41
2022-09-11T15:17:38.353Z,101822.09
2022-09-11T15:20:09.091Z,101845.88
2022-09-11T15:22:38.159Z,101832.88
2022-09-11T15:25:06.235Z,101845.94
2022-09-11T15:27:33.979Z,101842.16
2022-09-11T15:30:01.626Z,101845.53
2022-09-11T15:32:29.135Z,101837.22
2022-09-11T15:34:56.688Z,101833.50
2022-09-11T15:37:25.509Z,101835.50
2022-09-11T15:39:53.095Z,101825.59
2022-09-11T15:42:20.606Z,101820.56
2022-09-11T15:44:50.577Z,101821.19
2022-09-11T15:47:18.034Z,101832.47
2022-09-11T15:49:47.854Z,101819.19
2022-09-11T15:52:15.586Z,101829.09
2022-09-11T15:54:45.440Z,101823.50
2022-09-11T15:57:13.279Z,101825.44
2022-09-11T15:59:40.939Z,101822.06
2022-09-11T16:02:09.257Z,101825.63
2022-09-11T16:04:37.288Z,101817.66
2022-09-11T16:07:05.201Z,101827.16
2022-09-11T16:09:33.485Z,101813.34
2022-09-11T16:12:02.097Z,101818.19
2022-09-11T16:14:35.322Z,101809.88
2022-09-11T16:17:05.461Z,101817.19
2022-09-11T16:19:33.384Z,101830.50
2022-09-11T16:22:03.494Z,101819.84
2022-09-11T16:24:37.634Z,101820.03
2022-09-11T16:27:07.781Z,101828.06
2022-09-11T16:30:25.789Z,101821.41
2022-09-11T16:32:31.401Z,101812.63
2022-09-11T16:34:59.743Z,101820.75
2022-09-11T16:37:28.149Z,101815.56
2022-09-11T16:39:55.679Z,101815.56
2022-09-11T16:42:23.226Z,101815.91
2022-09-11T16:44:50.759Z,101813.44
2022-09-11T16:47:20.068Z,101803.97
2022-09-11T16:50:06.350Z,101803.19
2022-09-11T16:52:35.081Z,101796.13
2022-09-11T16:55:02.684Z,101800.53
2022-09-11T16:57:30.992Z,101800.88
2022-09-11T16:59:58.499Z,101806.25
2022-09-11T17:02:26.502Z,101792.63
2022-09-11T17:04:54.000Z,101804.91
2022-09-11T17:07:21.740Z,101800.69
2022-09-11T17:09:49.235Z,101791.19
2022-09-11T17:12:17.647Z,101806.94
2022-09-11T17:14:45.101Z,101799.81
2022-09-11T17:17:12.632Z,101793.66
2022-09-11T17:19:40.360Z,101773.78
2022-09-11T17:22:08.396Z,101797.19
2022-09-11T17:24:36.303Z,101798.84
2022-09-11T17:27:04.059Z,101789.13
2022-09-11T17:29:31.578Z,101785.59
2022-09-11T17:32:23.792Z,101769.13
2022-09-11T17:34:46.939Z,101783.09
2022-09-11T17:37:15.767Z,101775.41
2022-09-11T17:39:43.348Z,101786.78
2022-09-11T17:42:13.167Z,101787.81
2022-09-11T17:44:43.123Z,101787.06
2022-09-11T17:47:10.792Z,101768.97
2022-09-11T17:49:38.998Z,101765.81
2022-09-11T17:52:07.241Z,101785.94
2022-09-11T17:54:34.650Z,101788.84
2022-09-11T17:57:02.110Z,101789.13
2022-09-11T17:59:29.586Z,101781.41
2022-09-11T18:02:00.949Z,101779.94
2022-09-11T18:04:28.577Z,101781.91
2022-09-11T18:06:56.080Z,101782.94
2022-09-11T18:09:23.756Z,101784.94
2022-09-11T18:11:53.824Z,101784.28
2022-09-11T18:14:21.587Z,101780.03
2022-09-11T18:16:49.234Z,101793.59
2022-09-11T18:19:20.215Z,101792.13
2022-09-11T18:21:50.356Z,101793.31
2022-09-11T18:24:20.793Z,101781.31
2022-09-11T18:26:50.753Z,101784.13
2022-09-11T18:29:20.281Z,101785.25
2022-09-11T18:31:51.636Z,101781.94
2022-09-11T18:34:21.870Z,101792.66
2022-09-11T18:36:49.748Z,101795.38
2022-09-11T18:39:18.698Z,101790.38
2022-09-11T18:41:47.717Z,101787.84
2022-09-11T18:44:19.885Z,101790.63
2022-09-11T18:46:48.218Z,101796.06
2022-09-11T18:49:16.581Z,101791.88
2022-09-11T18:51:44.176Z,101793.72
2022-09-11T18:54:16.613Z,101799.09
2022-09-11T18:56:45.441Z,101793.09
2022-09-11T18:59:14.092Z,101794.03
2022-09-11T19:01:42.320Z,101794.19
2022-09-11T19:04:12.070Z,101803.06
2022-09-11T19:06:40.309Z,101794.41
2022-09-11T19:09:12.590Z,101799.75
2022-09-11T19:11:40.350Z,101802.50
2022-09-11T19:14:10.201Z,101796.53
2022-09-11T19:16:38.226Z,101802.78
2022-09-11T19:19:07.327Z,101805.47
2022-09-11T19:21:35.189Z,101807.34
2022-09-11T19:24:02.893Z,101801.28
2022-09-11T19:26:33.698Z,101805.75
2022-09-11T19:29:01.903Z,101804.88
2022-09-11T19:31:30.546Z,101805.84
2022-09-11T19:34:00.827Z,101813.81
2022-09-11T19:36:34.294Z,101816.50
2022-09-11T19:39:02.591Z,101813.94
2022-09-11T19:41:35.261Z,101810.50
2022-09-11T19:44:03.946Z,101821.97
2022-09-11T19:46:33.698Z,101822.06
2022-09-11T19:49:03.746Z,101821.28
2022-09-11T19:51:33.743Z,101825.75
2022-09-11T19:54:02.597Z,101820.53
2022-09-11T19:56:31.178Z,101832.88
2022-09-11T19:59:00.324Z,101820.63
2022-09-11T20:01:29.987Z,101820.69
2022-09-11T20:04:00.384Z,101827.72
2022-09-11T20:06:31.632Z,101827.75
2022-09-11T20:09:27.264Z,101828.69
2022-09-11T20:11:47.896Z,101829.66
2022-09-11T20:14:15.397Z,101832.38
2022-09-11T20:16:42.971Z,101829.84
2022-09-11T20:19:11.081Z,101821.19
2022-09-11T20:21:39.308Z,101832.59
2022-09-11T20:24:07.527Z,101829.97
2022-09-11T20:26:35.343Z,101828.25
2022-09-11T20:29:09.481Z,101817.75
2022-09-11T20:31:46.536Z,101824.75
2022-09-11T20:34:16.134Z,101815.19
2022-09-11T20:36:43.749Z,101818.66
2022-09-11T20:39:12.878Z,101814.28
2022-09-11T20:41:40.457Z,101812.66
2022-09-11T20:44:08.038Z,101811.78
2022-09-11T20:46:35.625Z,101814.41
2022-09-11T20:49:09.139Z,101810.97
2022-09-11T20:51:36.629Z,101820.63
2022-09-11T20:54:04.198Z,101816.28
2022-09-11T20:56:32.077Z,101814.56
2022-09-11T20:59:00.618Z,101815.50
2022-09-11T21:01:32.301Z,101814.63
2022-09-11T21:04:01.145Z,101818.16
2022-09-11T21:06:32.186Z,101808.69
2022-09-11T21:09:02.602Z,101812.13
2022-09-11T21:11:31.202Z,101822.63
2022-09-11T21:13:58.809Z,101827.88
2022-09-11T21:16:26.277Z,101822.69
2022-09-11T21:18:56.243Z,101819.19
2022-09-11T21:21:25.318Z,101818.31
2022-09-11T21:23:57.006Z,101814.88
2022-09-11T21:26:26.155Z,101814.91
2022-09-11T21:28:53.861Z,101802.63
2022-09-11T21:31:21.536Z,101799.19
2022-09-11T21:33:49.321Z,101814.09
2022-09-11T21:36:17.876Z,101806.25
2022-09-11T21:38:45.480Z,101801.06
2022-09-11T21:41:14.561Z,101806.28
2022-09-11T21:43:42.137Z,101813.28
2022-09-11T21:46:10.694Z,101818.59
2022-09-11T21:48:40.438Z,101810.75
2022-09-11T21:51:18.541Z,101809.03
2022-09-11T21:53:47.903Z,101811.69
2022-09-11T21:56:20.794Z,101812.59
2022-09-11T21:58:51.069Z,101813.47
2022-09-11T22:01:20.293Z,101811.78
2022-09-11T22:03:47.933Z,101810.06
2022-09-11T22:06:15.620Z,101817.06
2022-09-11T22:08:46.122Z,101812.72
2022-09-11T22:11:15.020Z,101814.47
2022-09-11T22:13:42.642Z,101809.25
2022-09-11T22:16:13.107Z,101804.06
2022-09-11T22:18:41.646Z,101820.63
2022-09-11T22:21:10.329Z,101814.53
2022-09-11T22:23:37.789Z,101818.03
2022-09-11T22:26:24.387Z,101798.06
2022-09-11T22:28:52.949Z,101798.94
2022-09-11T22:31:23.910Z,101810.25
2022-09-11T22:33:52.193Z,101814.59
2022-09-11T22:36:23.520Z,101811.16
2022-09-11T22:38:51.271Z,101803.31
2022-09-11T22:41:19.039Z,101810.28
2022-09-11T22:43:48.802Z,101801.59
2022-09-11T22:46:17.108Z,101804.22
2022-09-11T22:48:44.813Z,101802.47
2022-09-11T22:51:12.751Z,101805.09
2022-09-11T22:53:40.596Z,101801.66
2022-09-11T22:56:09.404Z,101803.44
2022-09-11T22:58:38.311Z,101806.06
2022-09-11T23:01:09.469Z,101800.00
2022-09-11T23:03:37.770Z,101793.88
2022-09-11T23:06:23.691Z,101795.66
2022-09-11T23:08:52.292Z,101796.56
2022-09-11T23:11:21.957Z,101787.81
2022-09-11T23:13:52.107Z,101785.22
2022-09-11T23:16:22.592Z,101784.38
2022-09-11T23:18:55.006Z,101785.28
2022-09-11T23:21:22.894Z,101783.56
2022-09-11T23:23:54.944Z,101777.44
2022-09-11T23:26:23.281Z,101776.63
2022-09-11T23:28:51.635Z,101779.22
2022-09-11T23:31:28.661Z,101780.97
2022-09-11T23:33:59.073Z,101778.38
2022-09-11T23:36:27.310Z,101771.50
2022-09-11T23:38:54.982Z,101774.09
2022-09-11T23:41:23.457Z,101775.84
2022-09-11T23:43:51.396Z,101770.63
2022-09-11T23:46:18.846Z,101766.28
2022-09-11T23:48:46.773Z,101767.19
2022-09-11T23:51:15.592Z,101765.41
2022-09-11T23:53:44.995Z,101768.06
2022-09-11T23:56:15.033Z,101771.53
2022-09-11T23:58:45.199Z,101771.53
